sensor_id;sensor_type;location;lat;lon;timestamp;P1;durP1;ratioP1;P2;durP2;ratioP2
10503;SDS011;5299;48.704;9.138;2022-08-04T00:01:11;3.22;;;1.58;;
10503;SDS011;5299;48.704;9.138;2022-08-04T00:10:22;4.63;;;2.03;;
10503;SDS011;5299;48.704;9.138;2022-08-04T00:14:49;4.53;;;1.52;;
10503;SDS011;5299;48.704;9.138;2022-08-04T00:19:54;3.17;;;2.00;;
10503;SDS011;5299;48.704;9.138;2022-08-04T00:24:19;3.60;;;1.98;;
10503;SDS011;5299;48.704;9.138;2022-08-04T00:28:38;5.15;;;1.95;;
10503;SDS011;5299;48.704;9.138;2022-08-04T00:33:01;7.55;;;1.50;;
10503;SDS011;5299;48.704;9.138;2022-08-04T00:37:20;2.58;;;1.48;;
10503;SDS011;5299;48.704;9.138;2022-08-04T01:01:38;5.93;;;1.73;;
10503;SDS011;5299;48.704;9.138;2022-08-04T01:06:22;3.28;;;1.67;;
10503;SDS011;5299;48.704;9.138;2022-08-04T01:11:05;4.20;;;1.55;;
10503;SDS011;5299;48.704;9.138;2022-08-04T01:16:04;2.63;;;1.63;;
10503;SDS011;5299;48.704;9.138;2022-08-04T01:20:14;4.88;;;1.73;;
10503;SDS011;5299;48.704;9.138;2022-08-04T01:29:09;4.93;;;1.65;;
10503;SDS011;5299;48.704;9.138;2022-08-04T01:33:16;3.25;;;1.83;;
10503;SDS011;5299;48.704;9.138;2022-08-04T01:41:57;5.45;;;1.73;;
10503;SDS011;5299;48.704;9.138;2022-08-04T01:46:02;3.90;;;1.70;;
10503;SDS011;5299;48.704;9.138;2022-08-04T01:50:08;3.58;;;2.42;;
10503;SDS011;5299;48.704;9.138;2022-08-04T01:54:13;7.15;;;1.88;;
10503;SDS011;5299;48.704;9.138;2022-08-04T01:58:18;3.13;;;1.98;;
10503;SDS011;5299;48.704;9.138;2022-08-04T02:02:22;4.65;;;1.73;;
10503;SDS011;5299;48.704;9.138;2022-08-04T02:06:28;3.67;;;1.77;;
10503;SDS011;5299;48.704;9.138;2022-08-04T02:10:56;2.40;;;1.50;;
10503;SDS011;5299;48.704;9.138;2022-08-04T02:19:31;2.95;;;1.65;;
10503;SDS011;5299;48.704;9.138;2022-08-04T02:23:35;2.95;;;1.73;;
10503;SDS011;5299;48.704;9.138;2022-08-04T02:32:02;4.50;;;1.70;;
10503;SDS011;5299;48.704;9.138;2022-08-04T02:36:05;3.72;;;2.08;;
10503;SDS011;5299;48.704;9.138;2022-08-04T02:40:10;2.72;;;1.52;;
10503;SDS011;5299;48.704;9.138;2022-08-04T02:44:13;2.75;;;1.63;;
10503;SDS011;5299;48.704;9.138;2022-08-04T02:48:14;3.10;;;1.63;;
10503;SDS011;5299;48.704;9.138;2022-08-04T02:52:31;4.00;;;1.43;;
10503;SDS011;5299;48.704;9.138;2022-08-04T02:56:34;2.67;;;1.50;;
10503;SDS011;5299;48.704;9.138;2022-08-04T03:00:39;7.32;;;1.80;;
10503;SDS011;5299;48.704;9.138;2022-08-04T03:04:53;3.42;;;1.90;;
10503;SDS011;5299;48.704;9.138;2022-08-04T03:17:30;4.03;;;2.17;;
10503;SDS011;5299;48.704;9.138;2022-08-04T03:26:20;5.63;;;2.33;;
10503;SDS011;5299;48.704;9.138;2022-08-04T03:48:08;3.67;;;2.13;;
10503;SDS011;5299;48.704;9.138;2022-08-04T04:01:11;4.63;;;2.07;;
10503;SDS011;5299;48.704;9.138;2022-08-04T04:10:23;3.53;;;1.88;;
10503;SDS011;5299;48.704;9.138;2022-08-04T04:14:41;6.72;;;2.38;;
10503;SDS011;5299;48.704;9.138;2022-08-04T04:18:56;3.70;;;2.00;;
10503;SDS011;5299;48.704;9.138;2022-08-04T04:23:14;3.78;;;1.95;;
10503;SDS011;5299;48.704;9.138;2022-08-04T04:36:11;4.00;;;2.47;;
10503;SDS011;5299;48.704;9.138;2022-08-04T04:48:53;7.68;;;2.85;;
10503;SDS011;5299;48.704;9.138;2022-08-04T04:53:05;3.03;;;1.88;;
10503;SDS011;5299;48.704;9.138;2022-08-04T04:57:18;4.93;;;2.63;;
10503;SDS011;5299;48.704;9.138;2022-08-04T05:06:17;3.08;;;1.50;;
10503;SDS011;5299;48.704;9.138;2022-08-04T05:14:49;6.40;;;2.33;;
10503;SDS011;5299;48.704;9.138;2022-08-04T05:18:55;4.95;;;2.78;;
10503;SDS011;5299;48.704;9.138;2022-08-04T05:23:12;3.05;;;1.73;;
10503;SDS011;5299;48.704;9.138;2022-08-04T05:27:18;6.05;;;2.55;;
10503;SDS011;5299;48.704;9.138;2022-08-04T05:31:23;7.43;;;2.58;;
10503;SDS011;5299;48.704;9.138;2022-08-04T05:35:33;3.42;;;1.65;;
10503;SDS011;5299;48.704;9.138;2022-08-04T05:39:57;7.15;;;2.42;;
10503;SDS011;5299;48.704;9.138;2022-08-04T05:43:59;4.50;;;2.05;;
10503;SDS011;5299;48.704;9.138;2022-08-04T05:48:01;5.68;;;2.15;;
10503;SDS011;5299;48.704;9.138;2022-08-04T05:52:03;4.30;;;2.10;;
10503;SDS011;5299;48.704;9.138;2022-08-04T05:56:05;4.40;;;1.92;;
10503;SDS011;5299;48.704;9.138;2022-08-04T06:00:10;4.20;;;1.95;;
10503;SDS011;5299;48.704;9.138;2022-08-04T06:04:41;3.42;;;1.65;;
10503;SDS011;5299;48.704;9.138;2022-08-04T06:08:50;4.95;;;1.73;;
10503;SDS011;5299;48.704;9.138;2022-08-04T06:13:00;6.68;;;2.22;;
10503;SDS011;5299;48.704;9.138;2022-08-04T06:17:32;7.47;;;1.80;;
10503;SDS011;5299;48.704;9.138;2022-08-04T06:22:01;2.83;;;1.50;;
10503;SDS011;5299;48.704;9.138;2022-08-04T06:26:12;4.78;;;1.83;;
10503;SDS011;5299;48.704;9.138;2022-08-04T06:31:01;3.83;;;2.00;;
10503;SDS011;5299;48.704;9.138;2022-08-04T06:35:35;8.63;;;2.25;;
10503;SDS011;5299;48.704;9.138;2022-08-04T06:39:36;4.05;;;2.08;;
10503;SDS011;5299;48.704;9.138;2022-08-04T06:43:38;4.40;;;1.50;;
10503;SDS011;5299;48.704;9.138;2022-08-04T06:47:43;10.50;;;2.05;;
10503;SDS011;5299;48.704;9.138;2022-08-04T06:51:46;3.55;;;1.85;;
10503;SDS011;5299;48.704;9.138;2022-08-04T06:55:49;2.67;;;1.30;;
10503;SDS011;5299;48.704;9.138;2022-08-04T06:59:59;3.47;;;1.42;;
10503;SDS011;5299;48.704;9.138;2022-08-04T07:04:04;5.85;;;1.60;;
10503;SDS011;5299;48.704;9.138;2022-08-04T07:08:05;2.63;;;1.40;;
10503;SDS011;5299;48.704;9.138;2022-08-04T07:12:07;2.38;;;1.30;;
10503;SDS011;5299;48.704;9.138;2022-08-04T07:16:11;2.97;;;1.17;;
10503;SDS011;5299;48.704;9.138;2022-08-04T07:20:17;2.78;;;1.38;;
10503;SDS011;5299;48.704;9.138;2022-08-04T07:24:43;4.27;;;1.50;;
10503;SDS011;5299;48.704;9.138;2022-08-04T07:28:51;2.33;;;1.10;;
10503;SDS011;5299;48.704;9.138;2022-08-04T07:33:05;4.20;;;1.27;;
10503;SDS011;5299;48.704;9.138;2022-08-04T07:37:59;4.15;;;1.23;;
10503;SDS011;5299;48.704;9.138;2022-08-04T07:42:53;4.13;;;1.95;;
10503;SDS011;5299;48.704;9.138;2022-08-04T07:47:08;2.95;;;1.67;;
10503;SDS011;5299;48.704;9.138;2022-08-04T07:51:12;3.05;;;1.40;;
10503;SDS011;5299;48.704;9.138;2022-08-04T07:55:14;4.45;;;1.45;;
10503;SDS011;5299;48.704;9.138;2022-08-04T07:59:20;4.35;;;1.55;;
10503;SDS011;5299;48.704;9.138;2022-08-04T08:03:23;3.67;;;1.17;;
10503;SDS011;5299;48.704;9.138;2022-08-04T08:07:28;3.85;;;1.38;;
10503;SDS011;5299;48.704;9.138;2022-08-04T08:11:30;3.92;;;1.40;;
10503;SDS011;5299;48.704;9.138;2022-08-04T08:15:54;4.45;;;1.50;;
10503;SDS011;5299;48.704;9.138;2022-08-04T08:19:57;2.58;;;1.27;;
10503;SDS011;5299;48.704;9.138;2022-08-04T08:23:59;2.20;;;0.90;;
10503;SDS011;5299;48.704;9.138;2022-08-04T08:28:01;2.60;;;1.02;;
10503;SDS011;5299;48.704;9.138;2022-08-04T08:32:04;3.40;;;1.27;;
10503;SDS011;5299;48.704;9.138;2022-08-04T08:40:47;2.05;;;1.13;;
10503;SDS011;5299;48.704;9.138;2022-08-04T08:54:02;2.17;;;1.20;;
10503;SDS011;5299;48.704;9.138;2022-08-04T09:11:22;3.08;;;1.45;;
10503;SDS011;5299;48.704;9.138;2022-08-04T09:15:35;3.28;;;1.10;;
10503;SDS011;5299;48.704;9.138;2022-08-04T09:19:44;2.33;;;1.47;;
10503;SDS011;5299;48.704;9.138;2022-08-04T09:28:34;5.28;;;1.58;;
10503;SDS011;5299;48.704;9.138;2022-08-04T09:46:24;2.70;;;1.75;;
10503;SDS011;5299;48.704;9.138;2022-08-04T09:50:38;3.10;;;1.60;;
10503;SDS011;5299;48.704;9.138;2022-08-04T09:54:51;3.22;;;1.40;;
10503;SDS011;5299;48.704;9.138;2022-08-04T09:59:10;3.63;;;1.10;;
10503;SDS011;5299;48.704;9.138;2022-08-04T10:03:20;2.25;;;1.15;;
10503;SDS011;5299;48.704;9.138;2022-08-04T10:07:27;2.85;;;1.30;;
10503;SDS011;5299;48.704;9.138;2022-08-04T10:25:04;3.30;;;1.40;;
10503;SDS011;5299;48.704;9.138;2022-08-04T10:29:37;3.30;;;1.63;;
10503;SDS011;5299;48.704;9.138;2022-08-04T10:33:47;2.13;;;1.10;;
10503;SDS011;5299;48.704;9.138;2022-08-04T10:46:36;3.17;;;1.75;;
10503;SDS011;5299;48.704;9.138;2022-08-04T10:50:44;2.15;;;1.13;;
10503;SDS011;5299;48.704;9.138;2022-08-04T10:59:23;1.85;;;1.10;;
10503;SDS011;5299;48.704;9.138;2022-08-04T11:07:56;2.38;;;1.25;;
10503;SDS011;5299;48.704;9.138;2022-08-04T11:12:14;7.35;;;1.45;;
10503;SDS011;5299;48.704;9.138;2022-08-04T11:16:25;4.20;;;1.38;;
10503;SDS011;5299;48.704;9.138;2022-08-04T11:24:45;1.90;;;1.10;;
10503;SDS011;5299;48.704;9.138;2022-08-04T11:28:59;4.47;;;1.55;;
10503;SDS011;5299;48.704;9.138;2022-08-04T11:33:21;4.05;;;1.50;;
10503;SDS011;5299;48.704;9.138;2022-08-04T11:37:45;6.72;;;1.58;;
10503;SDS011;5299;48.704;9.138;2022-08-04T11:45:57;2.13;;;1.35;;
10503;SDS011;5299;48.704;9.138;2022-08-04T11:54:14;2.75;;;1.52;;
10503;SDS011;5299;48.704;9.138;2022-08-04T11:58:16;3.80;;;1.55;;
10503;SDS011;5299;48.704;9.138;2022-08-04T12:02:29;2.38;;;1.35;;
10503;SDS011;5299;48.704;9.138;2022-08-04T12:15:47;2.97;;;1.20;;
10503;SDS011;5299;48.704;9.138;2022-08-04T12:19:54;3.28;;;1.25;;
10503;SDS011;5299;48.704;9.138;2022-08-04T12:24:15;2.40;;;1.55;;
10503;SDS011;5299;48.704;9.138;2022-08-04T12:28:30;5.35;;;1.65;;
10503;SDS011;5299;48.704;9.138;2022-08-04T12:32:58;2.53;;;1.60;;
10503;SDS011;5299;48.704;9.138;2022-08-04T12:37:25;4.22;;;1.67;;
10503;SDS011;5299;48.704;9.138;2022-08-04T12:42:12;4.10;;;1.70;;
10503;SDS011;5299;48.704;9.138;2022-08-04T12:46:27;4.07;;;1.83;;
10503;SDS011;5299;48.704;9.138;2022-08-04T12:50:33;2.88;;;1.48;;
10503;SDS011;5299;48.704;9.138;2022-08-04T12:54:51;4.70;;;2.15;;
10503;SDS011;5299;48.704;9.138;2022-08-04T12:59:04;3.17;;;1.88;;
10503;SDS011;5299;48.704;9.138;2022-08-04T13:03:35;3.10;;;1.40;;
10503;SDS011;5299;48.704;9.138;2022-08-04T13:07:49;2.45;;;1.30;;
10503;SDS011;5299;48.704;9.138;2022-08-04T13:20:48;3.42;;;1.77;;
10503;SDS011;5299;48.704;9.138;2022-08-04T13:24:57;3.67;;;1.20;;
10503;SDS011;5299;48.704;9.138;2022-08-04T13:29:19;7.30;;;1.60;;
10503;SDS011;5299;48.704;9.138;2022-08-04T13:33:43;4.55;;;1.65;;
10503;SDS011;5299;48.704;9.138;2022-08-04T13:37:45;4.03;;;1.50;;
10503;SDS011;5299;48.704;9.138;2022-08-04T13:41:49;4.90;;;1.90;;
10503;SDS011;5299;48.704;9.138;2022-08-04T13:46:07;2.60;;;1.23;;
10503;SDS011;5299;48.704;9.138;2022-08-04T13:50:31;3.80;;;1.52;;
10503;SDS011;5299;48.704;9.138;2022-08-04T13:58:56;4.03;;;1.38;;
10503;SDS011;5299;48.704;9.138;2022-08-04T14:03:19;8.98;;;1.90;;
10503;SDS011;5299;48.704;9.138;2022-08-04T14:07:25;4.70;;;1.65;;
10503;SDS011;5299;48.704;9.138;2022-08-04T14:12:08;5.93;;;1.73;;
10503;SDS011;5299;48.704;9.138;2022-08-04T14:21:20;4.13;;;1.92;;
10503;SDS011;5299;48.704;9.138;2022-08-04T14:25:27;3.70;;;1.83;;
10503;SDS011;5299;48.704;9.138;2022-08-04T14:29:36;8.05;;;1.65;;
10503;SDS011;5299;48.704;9.138;2022-08-04T14:33:39;2.42;;;1.83;;
10503;SDS011;5299;48.704;9.138;2022-08-04T14:38:02;5.13;;;1.55;;
10503;SDS011;5299;48.704;9.138;2022-08-04T14:42:09;4.40;;;1.90;;
10503;SDS011;5299;48.704;9.138;2022-08-04T14:46:11;5.57;;;1.50;;
10503;SDS011;5299;48.704;9.138;2022-08-04T14:50:13;2.63;;;1.42;;
10503;SDS011;5299;48.704;9.138;2022-08-04T14:54:27;2.83;;;1.80;;
10503;SDS011;5299;48.704;9.138;2022-08-04T14:58:31;8.90;;;1.88;;
10503;SDS011;5299;48.704;9.138;2022-08-04T15:02:39;5.05;;;2.08;;
10503;SDS011;5299;48.704;9.138;2022-08-04T15:07:00;3.90;;;2.00;;
10503;SDS011;5299;48.704;9.138;2022-08-04T15:15:39;3.53;;;2.00;;
10503;SDS011;5299;48.704;9.138;2022-08-04T15:20:08;4.15;;;2.08;;
10503;SDS011;5299;48.704;9.138;2022-08-04T15:24:16;5.68;;;1.85;;
10503;SDS011;5299;48.704;9.138;2022-08-04T15:28:29;3.67;;;1.60;;
10503;SDS011;5299;48.704;9.138;2022-08-04T15:32:52;4.07;;;1.77;;
10503;SDS011;5299;48.704;9.138;2022-08-04T15:37:05;3.35;;;1.63;;
10503;SDS011;5299;48.704;9.138;2022-08-04T15:41:55;2.63;;;1.63;;
10503;SDS011;5299;48.704;9.138;2022-08-04T15:46:19;3.70;;;1.90;;
10503;SDS011;5299;48.704;9.138;2022-08-04T16:03:57;8.18;;;2.10;;
10503;SDS011;5299;48.704;9.138;2022-08-04T16:08:09;4.57;;;1.83;;
10503;SDS011;5299;48.704;9.138;2022-08-04T16:12:22;2.80;;;1.50;;
10503;SDS011;5299;48.704;9.138;2022-08-04T16:16:55;3.88;;;1.88;;
10503;SDS011;5299;48.704;9.138;2022-08-04T16:21:01;3.80;;;1.92;;
10503;SDS011;5299;48.704;9.138;2022-08-04T16:25:16;3.90;;;1.50;;
10503;SDS011;5299;48.704;9.138;2022-08-04T16:34:17;3.55;;;1.80;;
10503;SDS011;5299;48.704;9.138;2022-08-04T16:38:59;4.80;;;2.08;;
10503;SDS011;5299;48.704;9.138;2022-08-04T16:43:10;3.42;;;2.10;;
10503;SDS011;5299;48.704;9.138;2022-08-04T16:47:15;3.47;;;1.52;;
10503;SDS011;5299;48.704;9.138;2022-08-04T16:52:03;3.90;;;1.60;;
10503;SDS011;5299;48.704;9.138;2022-08-04T16:56:35;7.18;;;1.88;;
10503;SDS011;5299;48.704;9.138;2022-08-04T17:00:46;3.33;;;1.73;;
10503;SDS011;5299;48.704;9.138;2022-08-04T17:04:52;20.40;;;2.38;;
10503;SDS011;5299;48.704;9.138;2022-08-04T17:09:09;3.87;;;1.47;;
10503;SDS011;5299;48.704;9.138;2022-08-04T17:13:41;3.10;;;1.85;;
10503;SDS011;5299;48.704;9.138;2022-08-04T17:23:38;6.35;;;2.10;;
10503;SDS011;5299;48.704;9.138;2022-08-04T17:33:52;4.88;;;1.65;;
10503;SDS011;5299;48.704;9.138;2022-08-04T17:38:04;5.18;;;2.30;;
10503;SDS011;5299;48.704;9.138;2022-08-04T17:42:35;6.40;;;1.73;;
10503;SDS011;5299;48.704;9.138;2022-08-04T17:47:34;10.82;;;2.13;;
10503;SDS011;5299;48.704;9.138;2022-08-04T18:12:20;3.90;;;1.80;;
10503;SDS011;5299;48.704;9.138;2022-08-04T18:17:37;4.93;;;2.38;;
10503;SDS011;5299;48.704;9.138;2022-08-04T18:22:13;8.27;;;1.98;;
10503;SDS011;5299;48.704;9.138;2022-08-04T18:26:28;3.85;;;2.13;;
10503;SDS011;5299;48.704;9.138;2022-08-04T18:30:31;3.78;;;2.25;;
10503;SDS011;5299;48.704;9.138;2022-08-04T18:34:55;6.38;;;2.60;;
10503;SDS011;5299;48.704;9.138;2022-08-04T18:39:06;7.30;;;3.08;;
10503;SDS011;5299;48.704;9.138;2022-08-04T18:43:15;6.95;;;2.95;;
10503;SDS011;5299;48.704;9.138;2022-08-04T18:47:28;6.72;;;2.70;;
10503;SDS011;5299;48.704;9.138;2022-08-04T18:51:30;5.18;;;2.70;;
10503;SDS011;5299;48.704;9.138;2022-08-04T18:55:31;5.18;;;2.53;;
10503;SDS011;5299;48.704;9.138;2022-08-04T18:59:53;4.80;;;2.47;;
10503;SDS011;5299;48.704;9.138;2022-08-04T19:04:00;4.57;;;2.20;;
10503;SDS011;5299;48.704;9.138;2022-08-04T19:08:24;7.07;;;2.55;;
10503;SDS011;5299;48.704;9.138;2022-08-04T19:12:35;7.80;;;2.78;;
10503;SDS011;5299;48.704;9.138;2022-08-04T19:16:37;8.27;;;2.72;;
10503;SDS011;5299;48.704;9.138;2022-08-04T19:20:41;7.43;;;3.35;;
10503;SDS011;5299;48.704;9.138;2022-08-04T19:24:43;6.57;;;2.63;;
10503;SDS011;5299;48.704;9.138;2022-08-04T19:28:49;7.38;;;2.90;;
10503;SDS011;5299;48.704;9.138;2022-08-04T19:32:52;5.43;;;2.72;;
10503;SDS011;5299;48.704;9.138;2022-08-04T19:36:54;5.53;;;2.60;;
10503;SDS011;5299;48.704;9.138;2022-08-04T19:41:10;5.30;;;2.40;;
10503;SDS011;5299;48.704;9.138;2022-08-04T19:45:43;4.10;;;2.17;;
10503;SDS011;5299;48.704;9.138;2022-08-04T19:54:11;12.82;;;3.00;;
10503;SDS011;5299;48.704;9.138;2022-08-04T19:58:24;5.55;;;2.63;;
10503;SDS011;5299;48.704;9.138;2022-08-04T20:02:26;5.82;;;3.40;;
10503;SDS011;5299;48.704;9.138;2022-08-04T20:12:33;5.45;;;2.53;;
10503;SDS011;5299;48.704;9.138;2022-08-04T20:17:22;4.47;;;2.60;;
10503;SDS011;5299;48.704;9.138;2022-08-04T20:22:48;6.82;;;3.10;;
10503;SDS011;5299;48.704;9.138;2022-08-04T20:31:16;8.02;;;2.97;;
10503;SDS011;5299;48.704;9.138;2022-08-04T20:40:32;6.32;;;2.92;;
10503;SDS011;5299;48.704;9.138;2022-08-04T20:50:00;7.13;;;3.65;;
10503;SDS011;5299;48.704;9.138;2022-08-04T20:54:02;6.65;;;2.83;;
10503;SDS011;5299;48.704;9.138;2022-08-04T20:58:17;6.20;;;3.08;;
10503;SDS011;5299;48.704;9.138;2022-08-04T21:02:27;7.32;;;3.67;;
10503;SDS011;5299;48.704;9.138;2022-08-04T21:06:29;6.15;;;3.45;;
10503;SDS011;5299;48.704;9.138;2022-08-04T21:10:30;5.97;;;2.97;;
10503;SDS011;5299;48.704;9.138;2022-08-04T21:14:32;5.05;;;2.90;;
10503;SDS011;5299;48.704;9.138;2022-08-04T21:18:36;5.47;;;2.75;;
10503;SDS011;5299;48.704;9.138;2022-08-04T21:23:27;5.88;;;3.10;;
10503;SDS011;5299;48.704;9.138;2022-08-04T21:38:01;4.68;;;2.83;;
10503;SDS011;5299;48.704;9.138;2022-08-04T21:43:04;5.88;;;3.20;;
10503;SDS011;5299;48.704;9.138;2022-08-04T21:57:05;5.50;;;2.70;;
10503;SDS011;5299;48.704;9.138;2022-08-04T22:02:24;4.20;;;3.03;;
10503;SDS011;5299;48.704;9.138;2022-08-04T22:10:54;6.75;;;3.17;;
10503;SDS011;5299;48.704;9.138;2022-08-04T22:14:58;5.53;;;3.10;;
10503;SDS011;5299;48.704;9.138;2022-08-04T22:23:56;4.75;;;3.15;;
10503;SDS011;5299;48.704;9.138;2022-08-04T22:33:06;6.07;;;3.30;;
10503;SDS011;5299;48.704;9.138;2022-08-04T22:37:23;4.40;;;2.90;;
10503;SDS011;5299;48.704;9.138;2022-08-04T22:51:07;5.63;;;3.05;;
10503;SDS011;5299;48.704;9.138;2022-08-04T23:00:32;6.13;;;3.53;;
10503;SDS011;5299;48.704;9.138;2022-08-04T23:05:00;9.93;;;3.17;;
10503;SDS011;5299;48.704;9.138;2022-08-04T23:09:15;3.72;;;2.70;;
10503;SDS011;5299;48.704;9.138;2022-08-04T23:13:51;5.75;;;3.45;;
10503;SDS011;5299;48.704;9.138;2022-08-04T23:23:42;4.95;;;3.33;;
10503;SDS011;5299;48.704;9.138;2022-08-04T23:34:00;4.70;;;3.17;;
10503;SDS011;5299;48.704;9.138;2022-08-04T23:38:31;5.40;;;3.03;;
10503;SDS011;5299;48.704;9.138;2022-08-04T23:43:03;4.77;;;3.33;;
10503;SDS011;5299;48.704;9.138;2022-08-04T23:47:57;6.80;;;3.17;;
10503;SDS011;5299;48.704;9.138;2022-08-04T23:52:19;5.15;;;2.80;;
10503;SDS011;5299;48.704;9.138;2022-08-04T23:56:49;5.22;;;3.30;;
